Time;durP1;ratioP1;P1;durP2;ratioP2;P2;SDS_P1;SDS_P2;PMS_P1;PMS_P2;Temp;Humidity;BMP_temperature;BMP_pressure;BME280_temperature;BME280_humidity;BME280_pressure;Samples;Min_cycle;Max_cycle;Signal;HPM_P1;HPM_P2
2022/08/20 00:01:40;;;;;;;22.38;12.50;;;18.90;99.90;;;;;;4954673;28;20522;-94
2022/08/20 00:04:06;;;;;;;22.08;12.20;;;19.10;99.90;;;;;;4937594;29;20046;-94
2022/08/20 00:06:33;;;;;;;23.55;13.50;;;19.20;99.90;;;;;;4954596;29;20122;-94
2022/08/20 00:08:58;;;;;;;26.70;12.70;;;18.80;99.90;;;;;;4954764;29;20047;-94
2022/08/20 00:11:28;;;;;;;26.30;13.18;;;18.90;99.90;;;;;;4937170;29;20052;-93
2022/08/20 00:13:58;;;;;;;24.52;12.88;;;19.00;99.90;;;;;;4938733;29;20043;-93
2022/08/20 00:16:28;;;;;;;25.90;13.07;;;19.40;99.90;;;;;;4940580;28;20130;-93
2022/08/20 00:18:54;;;;;;;24.60;13.73;;;19.20;99.90;;;;;;4943897;29;20054;-94
2022/08/20 00:21:20;;;;;;;25.73;14.18;;;18.80;99.90;;;;;;4941180;29;20403;-93
2022/08/20 00:23:48;;;;;;;27.40;14.93;;;19.00;99.90;;;;;;4950219;29;20043;-94
2022/08/20 00:26:15;;;;;;;31.63;15.35;;;18.80;99.90;;;;;;4968262;29;20043;-92
2022/08/20 00:28:40;;;;;;;27.20;15.23;;;18.90;99.90;;;;;;4958162;28;20146;-93
2022/08/20 00:31:09;;;;;;;30.23;15.65;;;18.60;99.90;;;;;;4943047;29;20040;-92
2022/08/20 00:33:35;;;;;;;25.90;15.63;;;18.60;99.90;;;;;;4975262;29;20055;-91
2022/08/20 00:36:05;;;;;;;26.08;15.15;;;18.60;99.90;;;;;;4974005;28;20047;-92
2022/08/20 00:38:33;;;;;;;30.70;15.38;;;18.60;99.90;;;;;;4951529;29;20053;-93
2022/08/20 00:40:59;;;;;;;27.58;15.38;;;18.60;99.90;;;;;;4960840;29;20122;-93
2022/08/20 00:43:36;;;;;;;27.52;15.07;;;18.50;99.90;;;;;;4940286;29;20515;-92
2022/08/20 00:46:26;;;;;;;28.23;15.55;;;18.60;99.90;;;;;;4939954;29;20083;-93
2022/08/20 00:48:54;;;;;;;33.53;15.65;;;18.50;99.90;;;;;;4957725;29;20049;-93
2022/08/20 00:51:37;;;;;;;29.13;15.35;;;18.50;99.90;;;;;;4939997;29;20058;-92
2022/08/20 00:54:14;;;;;;;26.25;15.38;;;18.50;99.90;;;;;;4957370;29;20047;-93
2022/08/20 00:56:44;;;;;;;30.02;15.23;;;18.60;99.90;;;;;;4956940;29;20043;-92
2022/08/20 00:59:20;;;;;;;31.58;16.13;;;18.50;99.90;;;;;;4956645;29;20059;-92
2022/08/20 01:01:46;;;;;;;28.83;15.32;;;18.90;99.90;;;;;;4939859;29;20101;-93
2022/08/20 01:04:12;;;;;;;26.67;15.05;;;19.10;99.90;;;;;;4957222;29;20182;-92
2022/08/20 01:06:39;;;;;;;30.83;15.60;;;18.70;99.90;;;;;;4956545;29;20494;-92
2022/08/20 01:09:06;;;;;;;24.50;15.05;;;18.50;99.90;;;;;;4939487;29;20086;-92
2022/08/20 01:11:34;;;;;;;27.83;15.48;;;18.50;99.90;;;;;;4956782;29;20045;-92
2022/08/20 01:14:18;;;;;;;31.73;15.43;;;18.70;99.90;;;;;;4956647;29;20051;-92
2022/08/20 01:16:47;;;;;;;28.95;15.25;;;18.60;99.90;;;;;;4940011;29;20070;-92
2022/08/20 01:19:15;;;;;;;28.20;15.13;;;18.50;99.90;;;;;;4939522;29;20496;-92
2022/08/20 01:21:41;;;;;;;28.52;15.35;;;18.40;99.90;;;;;;4938774;29;20054;-91
2022/08/20 01:24:19;;;;;;;31.45;15.43;;;18.40;99.90;;;;;;4956606;29;20043;-91
2022/08/20 01:26:48;;;;;;;26.58;14.75;;;18.60;99.90;;;;;;4938103;29;20066;-91
2022/08/20 01:29:21;;;;;;;27.48;15.07;;;18.40;99.90;;;;;;4938838;29;20439;-92
2022/08/20 01:31:47;;;;;;;28.55;14.85;;;18.40;99.90;;;;;;4956436;29;20039;-91
2022/08/20 01:34:15;;;;;;;28.45;15.07;;;18.40;99.90;;;;;;4956065;29;20039;-91
2022/08/20 01:36:50;;;;;;;27.60;15.30;;;18.30;99.90;;;;;;4938820;29;20515;-92
2022/08/20 01:39:20;;;;;;;29.20;16.33;;;18.30;99.90;;;;;;4956175;29;20435;-91
2022/08/20 01:42:02;;;;;;;29.60;14.85;;;18.30;99.90;;;;;;4938146;29;20042;-91
2022/08/20 01:44:29;;;;;;;26.73;14.98;;;18.30;99.90;;;;;;4939025;29;20039;-91
2022/08/20 01:46:55;;;;;;;27.05;14.88;;;18.20;99.90;;;;;;4956342;29;20054;-91
2022/08/20 01:49:26;;;;;;;29.30;14.70;;;18.20;99.90;;;;;;4945217;23;20071;-91
2022/08/20 01:51:56;;;;;;;26.83;14.77;;;18.40;99.90;;;;;;4935283;29;20059;-91
2022/08/20 01:54:23;;;;;;;29.27;15.68;;;18.10;99.90;;;;;;4936437;29;20052;-90
2022/08/20 01:56:56;;;;;;;31.60;15.07;;;18.20;99.90;;;;;;4934695;29;20127;-91
2022/08/20 01:59:22;;;;;;;31.60;15.98;;;18.20;99.90;;;;;;4937757;29;20062;-91
2022/08/20 02:01:49;;;;;;;25.65;14.13;;;18.30;99.90;;;;;;4953913;28;20047;-92
2022/08/20 02:04:16;;;;;;;30.60;14.75;;;18.10;99.90;;;;;;4954781;29;20070;-91
2022/08/20 02:06:46;;;;;;;25.60;13.27;;;18.60;99.90;;;;;;4955610;29;20077;-91
2022/08/20 02:09:12;;;;;;;26.20;14.00;;;18.00;99.90;;;;;;4938154;29;20047;-91
2022/08/20 02:11:38;;;;;;;27.73;13.25;;;17.90;99.90;;;;;;4955667;29;20039;-91
2022/08/20 02:14:07;;;;;;;25.00;13.48;;;18.70;99.90;;;;;;4942015;29;20495;-90
2022/08/20 02:16:36;;;;;;;24.95;13.80;;;18.40;99.90;;;;;;4966200;29;20126;-91
2022/08/20 02:19:08;;;;;;;27.58;13.50;;;18.80;99.90;;;;;;4955870;29;20047;-91
2022/08/20 02:21:36;;;;;;;25.75;13.70;;;18.80;99.90;;;;;;4940699;29;20578;-90
2022/08/20 02:24:03;;;;;;;27.50;14.00;;;18.50;99.90;;;;;;4939160;29;20139;-91
2022/08/20 02:26:29;;;;;;;29.73;13.80;;;18.00;99.90;;;;;;4938281;29;20468;-91
2022/08/20 02:28:55;;;;;;;26.13;13.70;;;18.00;99.90;;;;;;4937994;29;20074;-91
2022/08/20 02:31:22;;;;;;;26.88;13.93;;;17.90;99.90;;;;;;4941351;29;20051;-91
2022/08/20 02:33:48;;;;;;;27.10;13.73;;;18.20;99.90;;;;;;4938391;29;20043;-90
2022/08/20 02:36:17;;;;;;;27.30;13.60;;;17.90;99.90;;;;;;4937317;28;20043;-91
2022/08/20 02:38:44;;;;;;;25.17;13.45;;;17.90;99.90;;;;;;4936644;29;20094;-91
2022/08/20 02:41:11;;;;;;;25.65;12.65;;;17.80;99.90;;;;;;4937340;29;20054;-90
2022/08/20 02:43:37;;;;;;;24.88;13.20;;;18.20;99.90;;;;;;4954397;29;20514;-90
2022/08/20 02:46:04;;;;;;;24.25;12.77;;;17.90;99.90;;;;;;4937254;29;20047;-90
2022/08/20 02:48:32;;;;;;;28.55;13.25;;;17.80;99.90;;;;;;4954861;29;20050;-90
2022/08/20 02:51:04;;;;;;;28.75;13.07;;;17.80;99.90;;;;;;4950090;28;20505;-90
2022/08/20 02:53:32;;;;;;;27.02;13.52;;;17.80;99.90;;;;;;4974001;28;20108;-90
2022/08/20 02:55:59;;;;;;;27.30;13.20;;;17.70;99.90;;;;;;4956747;28;20049;-90
2022/08/20 02:58:25;;;;;;;26.23;12.98;;;17.70;99.90;;;;;;4973038;28;20058;-90
2022/08/20 03:00:51;;;;;;;23.45;12.70;;;17.70;99.90;;;;;;4956511;28;20053;-90
2022/08/20 03:03:21;;;;;;;23.20;13.18;;;17.60;99.90;;;;;;4956110;28;20086;-91
2022/08/20 03:05:49;;;;;;;27.40;13.10;;;17.70;99.90;;;;;;4956235;28;20062;-91
2022/08/20 03:08:16;;;;;;;27.38;12.88;;;17.60;99.90;;;;;;4956417;28;20043;-91
2022/08/20 03:10:44;;;;;;;25.33;13.05;;;17.60;99.90;;;;;;4956450;28;20039;-91
2022/08/20 03:13:11;;;;;;;26.98;12.35;;;17.50;99.90;;;;;;4955865;28;20491;-90
2022/08/20 03:15:43;;;;;;;26.50;12.88;;;17.40;99.90;;;;;;4956489;28;20078;-90
2022/08/20 03:18:09;;;;;;;25.88;12.43;;;17.50;99.90;;;;;;4956333;28;20057;-90
2022/08/20 03:20:35;;;;;;;23.23;12.77;;;17.40;99.90;;;;;;4973187;28;20101;-91
2022/08/20 03:23:00;;;;;;;28.42;13.57;;;17.90;99.90;;;;;;4956551;28;20050;-90
2022/08/20 03:25:26;;;;;;;28.48;12.93;;;17.60;99.90;;;;;;4956704;28;20051;-90
2022/08/20 03:27:52;;;;;;;27.45;12.82;;;17.80;99.90;;;;;;4955722;28;20039;-90
2022/08/20 03:30:18;;;;;;;27.00;12.68;;;17.40;99.90;;;;;;4973524;28;20542;-90
2022/08/20 03:32:44;;;;;;;26.85;11.02;;;17.20;99.90;;;;;;4956408;28;20086;-90
2022/08/20 03:35:12;;;;;;;26.60;12.75;;;17.20;99.90;;;;;;4972585;28;20034;-90
2022/08/20 03:37:39;;;;;;;27.83;13.27;;;17.20;99.90;;;;;;4973731;28;20054;-90
2022/08/20 03:40:08;;;;;;;31.02;12.80;;;17.20;99.90;;;;;;4956349;28;20039;-91
2022/08/20 03:42:33;;;;;;;30.00;12.77;;;17.20;99.90;;;;;;4955343;28;20055;-91
2022/08/20 03:44:59;;;;;;;25.33;12.30;;;17.40;99.90;;;;;;4956446;28;20136;-91
2022/08/20 03:47:26;;;;;;;22.38;11.75;;;17.60;99.90;;;;;;4972761;28;20479;-91
2022/08/20 03:49:56;;;;;;;26.10;12.23;;;17.10;99.90;;;;;;4982397;28;20051;-91
2022/08/20 03:52:21;;;;;;;27.60;11.80;;;17.10;99.90;;;;;;4985523;28;20069;-91
2022/08/20 03:54:47;;;;;;;26.48;12.32;;;17.10;99.90;;;;;;4960060;28;20130;-91
2022/08/20 03:57:14;;;;;;;24.65;11.70;;;17.00;99.90;;;;;;4960097;28;20484;-91
2022/08/20 03:59:43;;;;;;;24.48;11.57;;;17.00;99.90;;;;;;4960124;28;20133;-91
2022/08/20 04:02:10;;;;;;;26.38;11.15;;;17.50;99.90;;;;;;4975913;28;20047;-91
2022/08/20 04:04:37;;;;;;;24.30;11.07;;;16.90;99.90;;;;;;4976671;28;20066;-91
2022/08/20 04:07:15;;;;;;;27.02;11.05;;;16.90;99.90;;;;;;4959561;28;20101;-91
2022/08/20 04:09:42;;;;;;;23.92;11.07;;;16.90;99.90;;;;;;4976623;28;20046;-90
2022/08/20 04:12:11;;;;;;;25.45;11.00;;;16.90;99.90;;;;;;4977196;28;20125;-91
2022/08/20 04:14:39;;;;;;;25.95;10.73;;;16.80;99.90;;;;;;4959968;28;20051;-91
2022/08/20 04:17:09;;;;;;;22.40;10.45;;;16.90;99.90;;;;;;4976810;28;20042;-90
2022/08/20 04:19:36;;;;;;;23.25;10.63;;;16.80;99.90;;;;;;4977176;28;20065;-91
2022/08/20 04:22:01;;;;;;;22.38;10.32;;;16.80;99.90;;;;;;4964194;28;20054;-91
2022/08/20 04:24:27;;;;;;;21.17;10.93;;;16.70;99.90;;;;;;4976501;28;20043;-91
2022/08/20 04:26:53;;;;;;;23.75;10.25;;;16.70;99.90;;;;;;4961519;28;20050;-91
2022/08/20 04:29:23;;;;;;;19.85;10.20;;;17.10;99.90;;;;;;4968922;28;20107;-89
2022/08/20 04:31:49;;;;;;;23.27;9.98;;;16.60;99.90;;;;;;4973374;28;20050;-89
2022/08/20 04:34:17;;;;;;;20.95;10.07;;;16.60;99.90;;;;;;4960349;28;20053;-90
2022/08/20 04:36:46;;;;;;;23.02;10.35;;;16.60;99.90;;;;;;4958897;28;20445;-90
2022/08/20 04:39:13;;;;;;;19.80;10.23;;;16.50;99.90;;;;;;4958966;28;20046;-92
2022/08/20 04:41:40;;;;;;;22.55;9.15;;;16.60;99.90;;;;;;4963768;28;20070;-91
2022/08/20 04:44:06;;;;;;;20.63;8.63;;;16.50;99.90;;;;;;4983958;28;20050;-89
2022/08/20 04:46:31;;;;;;;21.77;8.50;;;16.60;99.90;;;;;;4966983;28;20042;-91
2022/08/20 04:48:59;;;;;;;18.52;8.75;;;16.60;99.90;;;;;;4961811;28;20055;-91
2022/08/20 04:51:25;;;;;;;16.80;8.60;;;16.60;99.90;;;;;;4974986;28;20062;-91
2022/08/20 04:53:52;;;;;;;22.05;9.02;;;16.60;99.90;;;;;;4958898;28;20047;-91
2022/08/20 04:56:22;;;;;;;17.95;8.02;;;17.10;99.90;;;;;;4976219;28;20053;-90
2022/08/20 04:58:49;;;;;;;18.92;8.43;;;16.60;99.90;;;;;;4958027;28;20047;-91
2022/08/20 05:01:15;;;;;;;19.27;8.15;;;16.60;99.90;;;;;;4957519;28;20089;-91
2022/08/20 05:03:42;;;;;;;20.33;7.85;;;16.60;99.90;;;;;;4959187;28;20094;-91
2022/08/20 05:06:09;;;;;;;20.75;8.20;;;16.60;99.90;;;;;;4957936;28;20387;-90
2022/08/20 05:08:37;;;;;;;22.55;8.10;;;16.60;99.90;;;;;;4959389;28;20061;-91
2022/08/20 05:11:03;;;;;;;18.60;7.28;;;16.60;99.90;;;;;;4960901;28;20058;-91
2022/08/20 05:13:29;;;;;;;20.50;7.35;;;16.60;99.90;;;;;;4977864;28;20047;-90
2022/08/20 05:15:56;;;;;;;16.20;7.15;;;16.70;99.90;;;;;;4976356;28;20050;-90
2022/08/20 05:18:24;;;;;;;15.63;7.53;;;16.50;99.90;;;;;;4976338;28;20066;-91
2022/08/20 05:20:51;;;;;;;16.85;7.50;;;17.00;99.90;;;;;;4957859;28;20047;-89
2022/08/20 05:23:19;;;;;;;15.38;6.40;;;16.50;99.90;;;;;;4958401;28;20082;-84
2022/08/20 05:25:47;;;;;;;19.02;7.00;;;16.50;99.90;;;;;;4957554;28;20050;-84
2022/08/20 05:28:19;;;;;;;16.58;6.72;;;16.50;99.90;;;;;;4975757;28;20043;-84
2022/08/20 05:30:47;;;;;;;15.05;6.55;;;16.50;99.90;;;;;;4975577;28;20047;-85
2022/08/20 05:33:16;;;;;;;13.38;6.07;;;16.50;99.90;;;;;;4974771;28;20043;-85
2022/08/20 05:35:42;;;;;;;15.35;6.13;;;16.40;99.90;;;;;;4954331;28;20123;-83
2022/08/20 05:38:10;;;;;;;14.13;5.93;;;16.50;99.90;;;;;;4950197;28;20123;-85
2022/08/20 05:40:37;;;;;;;16.15;5.88;;;16.40;99.90;;;;;;4957025;28;20483;-84
2022/08/20 05:43:05;;;;;;;14.63;6.40;;;16.40;99.90;;;;;;4957693;28;20042;-84
2022/08/20 05:45:32;;;;;;;15.15;5.68;;;16.40;99.90;;;;;;4975233;28;20051;-84
2022/08/20 05:48:02;;;;;;;14.70;5.60;;;16.40;99.90;;;;;;4974680;28;20042;-84
2022/08/20 05:50:28;;;;;;;15.98;5.93;;;16.50;99.90;;;;;;4957210;28;20518;-84
2022/08/20 05:52:53;;;;;;;16.08;5.30;;;16.50;99.90;;;;;;4975059;28;20047;-85
2022/08/20 05:55:22;;;;;;;14.25;5.38;;;16.50;99.90;;;;;;4974043;28;20039;-83
2022/08/20 05:57:48;;;;;;;16.75;5.10;;;16.50;99.90;;;;;;4957308;28;20115;-84
2022/08/20 06:00:14;;;;;;;13.38;4.80;;;16.50;99.90;;;;;;4954594;28;20058;-85
2022/08/20 06:05:24;;;;;;;10.90;4.63;;;16.60;99.90;;;;;;4937751;29;20078;-85
2022/08/20 06:07:51;;;;;;;14.25;4.97;;;16.60;99.90;;;;;;4938022;29;20078;-85
2022/08/20 06:10:17;;;;;;;13.60;4.47;;;16.60;99.90;;;;;;4954958;28;20047;-85
2022/08/20 06:12:46;;;;;;;14.10;5.00;;;16.60;99.90;;;;;;4937582;29;20047;-85
2022/08/20 06:15:12;;;;;;;12.07;4.72;;;16.60;99.90;;;;;;4937506;29;20110;-85
2022/08/20 06:17:38;;;;;;;10.70;4.07;;;16.60;99.90;;;;;;4954862;29;20039;-86
2022/08/20 06:20:06;;;;;;;17.05;4.78;;;16.50;99.90;;;;;;4939985;29;20059;-84
2022/08/20 06:22:32;;;;;;;13.30;4.30;;;16.60;99.90;;;;;;4936843;29;20121;-85
2022/08/20 06:24:58;;;;;;;12.35;4.50;;;16.50;99.90;;;;;;4938086;29;20051;-87
2022/08/20 06:27:26;;;;;;;12.77;4.72;;;16.60;99.90;;;;;;4938583;29;20117;-87
2022/08/20 06:29:52;;;;;;;12.32;4.13;;;16.70;99.90;;;;;;4939140;29;20142;-88
2022/08/20 06:32:21;;;;;;;17.15;4.78;;;16.70;99.90;;;;;;4939497;29;20047;-91
2022/08/20 06:34:47;;;;;;;15.00;4.78;;;16.80;99.90;;;;;;4938504;29;20448;-89
2022/08/20 06:37:20;;;;;;;12.20;4.03;;;16.90;99.90;;;;;;4955643;29;20079;-88
2022/08/20 06:39:46;;;;;;;14.88;4.82;;;17.00;99.90;;;;;;4939100;29;20047;-89
2022/08/20 06:42:12;;;;;;;11.75;3.80;;;17.10;99.90;;;;;;4938521;29;20518;-90
2022/08/20 06:44:38;;;;;;;57.90;7.28;;;17.30;99.90;;;;;;4938172;29;20051;-89
2022/08/20 06:47:04;;;;;;;11.82;4.32;;;17.70;99.90;;;;;;4957410;29;20431;-89
2022/08/20 06:49:34;;;;;;;15.02;4.05;;;17.50;99.90;;;;;;4942482;28;20047;-89
2022/08/20 06:51:59;;;;;;;12.45;3.90;;;17.60;99.90;;;;;;4957312;29;20055;-91
2022/08/20 06:54:25;;;;;;;11.82;3.53;;;17.70;99.90;;;;;;4939899;29;20058;-91
2022/08/20 06:56:52;;;;;;;12.18;3.28;;;17.80;99.90;;;;;;4956153;29;20043;-86
2022/08/20 06:59:18;;;;;;;9.93;3.10;;;17.70;99.90;;;;;;4960103;28;20050;-88
2022/08/20 07:01:44;;;;;;;11.55;3.30;;;17.80;99.90;;;;;;4959528;28;20038;-87
2022/08/20 07:04:09;;;;;;;10.43;3.35;;;17.70;99.90;;;;;;4976579;28;20551;-87
2022/08/20 07:06:35;;;;;;;12.73;3.30;;;17.70;99.90;;;;;;4976573;28;20038;-88
2022/08/20 07:09:01;;;;;;;11.65;3.35;;;17.70;99.90;;;;;;4976751;28;20043;-86
2022/08/20 07:11:26;;;;;;;11.70;3.28;;;17.70;99.90;;;;;;4975608;28;20078;-86
2022/08/20 07:13:52;;;;;;;12.98;3.47;;;17.70;99.90;;;;;;4971771;28;20108;-87
2022/08/20 07:16:18;;;;;;;14.88;3.70;;;18.50;99.90;;;;;;4964899;28;20086;-87
2022/08/20 07:18:43;;;;;;;11.73;3.35;;;17.90;99.90;;;;;;4948062;28;20028;-86
2022/08/20 07:21:10;;;;;;;12.27;3.30;;;18.00;99.90;;;;;;4939921;29;20550;-87
2022/08/20 07:23:37;;;;;;;13.02;3.30;;;18.00;99.90;;;;;;4939011;29;20051;-88
2022/08/20 07:26:02;;;;;;;12.25;3.33;;;18.10;99.90;;;;;;4938814;29;20126;-87
2022/08/20 07:28:30;;;;;;;13.15;3.22;;;18.20;99.90;;;;;;4956875;29;20074;-86
2022/08/20 07:33:41;;;;;;;11.82;3.20;;;18.00;99.90;;;;;;4938884;29;20047;-85
2022/08/20 07:36:07;;;;;;;11.57;3.00;;;18.00;99.90;;;;;;4956016;29;20047;-86
2022/08/20 07:38:34;;;;;;;10.93;2.90;;;17.90;99.90;;;;;;4938771;29;20429;-87
2022/08/20 07:41:06;;;;;;;9.85;2.80;;;17.80;99.90;;;;;;4936606;29;20054;-88
2022/08/20 07:43:33;;;;;;;13.77;3.45;;;17.80;99.90;;;;;;4936677;29;20051;-87
2022/08/20 07:46:00;;;;;;;13.88;3.10;;;17.70;99.90;;;;;;4954216;29;20047;-86
2022/08/20 07:48:28;;;;;;;12.02;3.30;;;17.70;99.90;;;;;;4935651;28;20070;-86
2022/08/20 07:50:55;;;;;;;13.80;3.22;;;18.40;99.90;;;;;;4936752;29;20051;-89
2022/08/20 07:53:21;;;;;;;12.18;2.85;;;18.00;99.90;;;;;;4936165;29;20046;-87
2022/08/20 07:55:46;;;;;;;11.18;3.38;;;18.80;99.90;;;;;;4936509;29;20403;-89
2022/08/20 07:58:16;;;;;;;12.85;2.97;;;19.00;99.90;;;;;;4954092;29;20051;-87
2022/08/20 08:00:42;;;;;;;10.07;2.83;;;18.70;99.90;;;;;;4936169;29;20047;-88
2022/08/20 08:03:08;;;;;;;10.80;2.65;;;18.60;99.90;;;;;;4953666;29;20483;-87
2022/08/20 08:05:37;;;;;;;12.95;2.88;;;18.80;99.90;;;;;;4953553;29;20495;-87
2022/08/20 08:08:07;;;;;;;12.30;2.63;;;19.10;99.90;;;;;;4953268;29;20070;-87
2022/08/20 08:10:34;;;;;;;12.00;2.90;;;19.00;99.90;;;;;;4936628;29;20087;-87
2022/08/20 08:13:03;;;;;;;11.38;2.47;;;19.20;99.90;;;;;;4936870;29;20047;-87
2022/08/20 08:15:33;;;;;;;7.97;2.20;;;19.50;99.90;;;;;;4935544;29;20039;-87
2022/08/20 08:18:05;;;;;;;6.88;1.90;;;19.30;99.90;;;;;;4940521;29;20051;-88
2022/08/20 08:20:30;;;;;;;11.20;2.55;;;19.70;99.90;;;;;;4953561;29;20510;-88
2022/08/20 08:22:57;;;;;;;7.65;2.28;;;19.50;99.90;;;;;;4953473;29;20047;-89
2022/08/20 08:25:23;;;;;;;8.02;1.90;;;19.50;99.90;;;;;;4936836;29;20043;-88
2022/08/20 08:27:48;;;;;;;10.85;2.42;;;19.40;99.90;;;;;;4939905;29;20459;-89
2022/08/20 08:30:15;;;;;;;11.68;2.80;;;19.50;99.90;;;;;;4953036;29;20050;-88
2022/08/20 08:33:26;;;;;;;7.68;1.92;;;19.40;99.90;;;;;;4936469;29;20181;-87
2022/08/20 08:35:28;;;;;;;9.13;2.50;;;19.80;99.90;;;;;;4940962;28;20511;-89
2022/08/20 08:37:53;;;;;;;9.02;2.25;;;19.70;99.90;;;;;;4989236;28;20157;-89
2022/08/20 08:40:22;;;;;;;10.60;2.10;;;19.80;99.90;;;;;;4959380;28;20441;-89
2022/08/20 08:42:56;;;;;;;10.45;2.40;;;19.90;99.90;;;;;;4975585;28;20372;-89
2022/08/20 08:45:26;;;;;;;8.38;2.00;;;20.00;99.90;;;;;;4976029;28;20499;-88
2022/08/20 08:47:53;;;;;;;8.13;1.90;;;19.80;99.90;;;;;;4976546;28;20105;-89
2022/08/20 08:50:26;;;;;;;10.93;2.03;;;19.70;99.90;;;;;;4957762;28;20069;-88
2022/08/20 08:52:55;;;;;;;;;;;19.70;99.90;;;;;;4959204;28;20098;-88
2022/08/20 08:55:21;;;;;;;8.40;1.95;;;19.70;99.90;;;;;;4958439;28;19925;-88
2022/08/20 08:57:48;;;;;;;8.85;2.15;;;19.80;99.90;;;;;;4975389;28;20046;-89
2022/08/20 09:00:20;;;;;;;7.25;2.40;;;20.00;99.90;;;;;;4958834;28;20449;-88
2022/08/20 09:03:08;;;;;;;7.93;2.33;;;20.10;99.90;;;;;;4975899;28;20835;-88
2022/08/20 09:05:48;;;;;;;7.18;1.83;;;20.10;99.90;;;;;;4957621;28;20417;-87
2022/08/20 09:08:17;;;;;;;7.47;1.60;;;20.60;99.90;;;;;;4958580;28;20439;-87
2022/08/20 09:10:43;;;;;;;8.65;2.03;;;20.40;99.90;;;;;;4958243;28;20145;-87
2022/08/20 09:13:09;;;;;;;9.13;1.80;;;20.40;99.90;;;;;;4976187;28;20039;-88
2022/08/20 09:15:37;;;;;;;6.72;1.70;;;20.50;99.90;;;;;;4958044;28;20085;-89
2022/08/20 09:18:18;;;;;;;8.82;2.00;;;20.60;99.90;;;;;;4957404;28;20150;-88
2022/08/20 09:20:59;;;;;;;4.97;1.60;;;21.20;99.90;;;;;;4958303;28;20458;-89
2022/08/20 09:23:25;;;;;;;9.18;1.77;;;20.60;99.90;;;;;;4975263;28;20087;-90
2022/08/20 09:25:51;;;;;;;6.35;1.65;;;20.60;99.90;;;;;;4955846;28;20430;-89
2022/08/20 09:28:17;;;;;;;8.10;1.95;;;20.60;99.90;;;;;;4957927;28;20464;-89
2022/08/20 09:30:48;;;;;;;8.60;1.70;;;21.30;99.90;;;;;;4957901;28;20039;-88
2022/08/20 09:33:14;;;;;;;8.05;1.70;;;20.80;99.90;;;;;;4975672;28;20052;-90
2022/08/20 09:35:45;;;;;;;6.80;1.65;;;21.30;99.90;;;;;;4961848;28;20042;-88
2022/08/20 09:38:11;;;;;;;8.05;1.90;;;21.00;99.90;;;;;;4962573;28;20047;-91
2022/08/20 09:40:46;;;;;;;7.45;1.92;;;21.10;99.90;;;;;;4957990;28;20102;-90
2022/08/20 09:43:11;;;;;;;7.10;1.65;;;21.80;99.90;;;;;;4957849;28;20050;-94
2022/08/20 09:45:56;;;;;;;9.00;1.80;;;21.40;99.90;;;;;;4969314;28;20513;-92
2022/08/20 09:48:21;;;;;;;6.85;1.75;;;22.20;99.90;;;;;;4957961;28;20043;-91
2022/08/20 09:50:55;;;;;;;6.97;1.75;;;21.40;99.90;;;;;;4958021;28;20478;-91
2022/08/20 09:53:30;;;;;;;8.80;1.92;;;22.00;99.90;;;;;;4974341;28;20486;-91
2022/08/20 09:55:56;;;;;;;6.80;1.85;;;22.10;99.90;;;;;;4958257;28;20105;-91
2022/08/20 09:58:56;;;;;;;6.03;1.60;;;21.60;99.90;;;;;;4957977;28;20050;-91
2022/08/20 10:01:34;;;;;;;6.60;1.70;;;21.70;99.90;;;;;;4975314;28;20053;-92
2022/08/20 10:04:14;;;;;;;6.90;2.15;;;21.90;99.90;;;;;;4958935;28;20043;-92
2022/08/20 10:06:41;;;;;;;6.38;2.10;;;21.70;99.90;;;;;;4958603;28;20046;-92
2022/08/20 10:09:10;;;;;;;6.78;1.80;;;21.90;99.90;;;;;;4957727;28;20046;-91
2022/08/20 10:11:51;;;;;;;8.55;1.90;;;22.30;99.90;;;;;;4976853;28;20098;-95
2022/08/20 10:14:32;;;;;;;6.65;1.83;;;21.60;99.90;;;;;;4954447;28;20537;-96
2022/08/20 10:17:04;;;;;;;9.63;2.03;;;21.80;99.90;;;;;;4976881;28;20042;-95
2022/08/20 10:19:45;;;;;;;6.13;1.75;;;22.50;99.90;;;;;;4949011;29;20078;-93
2022/08/20 10:22:26;;;;;;;7.25;1.60;;;22.90;99.90;;;;;;4954626;29;20066;-93
2022/08/20 10:25:15;;;;;;;8.63;2.00;;;22.70;99.90;;;;;;4964567;28;20037;-96
2022/08/20 10:27:54;;;;;;;6.82;1.60;;;22.20;99.90;;;;;;4952077;29;20043;-96
2022/08/20 10:30:22;;;;;;;6.22;1.58;;;22.40;99.90;;;;;;4962032;29;20043;-96
2022/08/20 10:32:48;;;;;;;8.80;1.80;;;22.90;99.90;;;;;;4939290;29;20048;-94
2022/08/20 10:35:14;;;;;;;6.30;1.92;;;22.40;99.90;;;;;;4938231;29;20066;-92
2022/08/20 10:37:39;;;;;;;7.32;1.60;;;23.10;99.90;;;;;;4939001;29;20083;-90
2022/08/20 10:40:19;;;;;;;7.22;1.70;;;23.00;99.90;;;;;;4938066;29;20101;-88
2022/08/20 10:43:10;;;;;;;7.57;1.70;;;23.10;99.90;;;;;;4943762;23;20551;-89
2022/08/20 10:45:45;;;;;;;7.85;1.70;;;23.10;99.90;;;;;;4953066;29;20043;-89
2022/08/20 10:48:20;;;;;;;7.47;1.83;;;23.00;99.90;;;;;;4955422;28;20443;-90
2022/08/20 10:50:51;;;;;;;7.85;2.13;;;23.20;99.90;;;;;;4955781;28;20074;-88
2022/08/20 10:53:26;;;;;;;10.38;1.85;;;23.20;99.90;;;;;;4956778;28;20081;-90
2022/08/20 10:55:53;;;;;;;8.68;1.98;;;23.40;99.90;;;;;;4956676;28;20047;-88
2022/08/20 10:58:19;;;;;;;8.32;2.05;;;23.40;99.90;;;;;;4955170;28;20487;-89
2022/08/20 11:00:52;;;;;;;8.05;2.00;;;23.60;99.90;;;;;;4973682;28;20058;-89
2022/08/20 11:03:19;;;;;;;8.90;1.85;;;23.60;99.90;;;;;;4972902;28;20431;-89
2022/08/20 11:06:00;;;;;;;7.40;1.95;;;23.20;99.90;;;;;;4973989;28;20074;-90
2022/08/20 11:08:25;;;;;;;8.40;1.90;;;22.80;99.90;;;;;;4956223;28;20451;-88
2022/08/20 11:11:06;;;;;;;6.78;1.70;;;22.50;99.90;;;;;;4955699;28;20042;-88
2022/08/20 11:13:34;;;;;;;7.82;1.98;;;22.50;99.90;;;;;;4973793;28;20097;-89
2022/08/20 11:16:03;;;;;;;6.15;1.63;;;22.90;99.90;;;;;;4974305;28;20121;-89
2022/08/20 11:18:29;;;;;;;7.03;1.75;;;23.00;99.90;;;;;;4955983;28;20054;-88
2022/08/20 11:20:54;;;;;;;7.13;1.80;;;24.10;99.90;;;;;;4956689;28;20105;-88
2022/08/20 11:23:29;;;;;;;6.50;1.92;;;23.70;99.90;;;;;;4956282;28;20046;-90
2022/08/20 11:25:56;;;;;;;6.55;1.80;;;24.00;99.90;;;;;;4974034;28;20043;-89
2022/08/20 11:28:21;;;;;;;7.63;1.90;;;24.40;99.90;;;;;;4957276;28;20395;-89
2022/08/20 11:31:03;;;;;;;7.05;1.80;;;24.60;99.90;;;;;;4957754;28;20408;-88
2022/08/20 11:33:28;;;;;;;8.55;2.08;;;24.40;99.90;;;;;;4955452;28;20042;-88
2022/08/20 11:35:57;;;;;;;5.95;1.70;;;24.30;99.90;;;;;;4956248;28;20451;-90
2022/08/20 11:38:25;;;;;;;7.88;2.05;;;24.80;99.90;;;;;;4973475;28;20035;-85
2022/08/20 11:40:51;;;;;;;7.60;2.00;;;24.30;99.90;;;;;;4956303;28;20093;-87
2022/08/20 11:43:17;;;;;;;7.38;2.17;;;24.70;99.90;;;;;;4973175;28;20090;-90
2022/08/20 11:45:54;;;;;;;8.07;1.90;;;24.80;99.90;;;;;;4946504;23;20507;-87
2022/08/20 11:48:20;;;;;;;6.57;1.85;;;24.70;99.90;;;;;;4946607;29;20090;-86
2022/08/20 11:51:01;;;;;;;6.63;1.80;;;24.40;99.90;;;;;;4937421;29;20036;-86
2022/08/20 11:53:27;;;;;;;7.07;1.80;;;23.90;99.90;;;;;;4953870;29;20047;-87
2022/08/20 11:55:53;;;;;;;9.73;2.00;;;24.20;99.90;;;;;;4937319;29;20075;-86
2022/08/20 11:58:33;;;;;;;7.70;1.80;;;23.70;99.90;;;;;;4936612;29;20078;-89
2022/08/20 12:00:59;;;;;;;9.82;2.20;;;24.20;99.90;;;;;;4953762;29;20043;-86
2022/08/20 12:03:29;;;;;;;7.30;1.83;;;23.60;99.90;;;;;;4936862;29;20550;-88
2022/08/20 12:05:56;;;;;;;9.88;2.10;;;24.00;99.90;;;;;;4954900;29;20075;-92
2022/08/20 12:08:25;;;;;;;8.75;1.98;;;23.60;99.90;;;;;;4953720;29;20047;-88
2022/08/20 12:10:51;;;;;;;7.20;1.90;;;22.80;99.90;;;;;;4940425;29;20126;-94
2022/08/20 12:13:38;;;;;;;6.28;1.77;;;23.00;99.90;;;;;;4949071;28;20081;-93
2022/08/20 12:16:48;;;;;;;7.18;2.00;;;23.00;99.90;;;;;;4946678;29;20047;-93
2022/08/20 12:19:14;;;;;;;7.47;1.92;;;23.60;99.90;;;;;;4914208;29;20059;-93
2022/08/20 12:21:42;;;;;;;7.30;1.85;;;24.50;99.90;;;;;;4939199;29;20052;-90
2022/08/20 12:24:08;;;;;;;7.05;1.80;;;24.30;99.90;;;;;;4943841;29;20047;-90
2022/08/20 12:26:43;;;;;;;9.25;2.05;;;24.90;99.90;;;;;;4940521;29;20130;-86
2022/08/20 12:29:08;;;;;;;7.53;1.75;;;25.10;99.90;;;;;;4940045;29;20051;-87
2022/08/20 12:31:34;;;;;;;6.30;1.88;;;25.20;99.90;;;;;;4957635;29;20109;-86
2022/08/20 12:34:09;;;;;;;11.77;2.15;;;25.40;99.90;;;;;;4940389;29;20248;-86
2022/08/20 12:36:35;;;;;;;9.10;2.00;;;26.10;99.90;;;;;;4956461;29;20070;-87
2022/08/20 12:39:16;;;;;;;9.52;2.42;;;25.80;99.40;;;;;;4939737;29;20129;-86
2022/08/20 12:41:41;;;;;;;9.90;2.10;;;26.20;96.70;;;;;;4957404;29;20122;-88
2022/08/20 12:44:08;;;;;;;7.47;1.90;;;26.40;99.90;;;;;;4939539;29;20187;-90
2022/08/20 12:46:33;;;;;;;8.43;1.85;;;26.40;99.90;;;;;;4939819;29;20258;-87
2022/08/20 12:48:59;;;;;;;7.20;2.08;;;26.20;99.90;;;;;;4938953;29;20047;-85
2022/08/20 12:51:24;;;;;;;7.72;1.90;;;26.30;99.90;;;;;;4949014;29;20039;-84